Decoded Metar for DTTG (GABES in TUNISIA) (IATA:GAE) | Meteo·Mobile Aviation Weather
aviador You're here:

DTTG Decoded Metar

GABES in TUNISIA
Report Time2019-01-17 22:00:00
UTC Time2019-01-17 23:05:44
Flight Rules vfr VFR
Wind120° at 03 kt
W.Decomp.*RWY 06: 1.5 kt HW 2.6 kt RCW
W.Rank120° ranks 17
Current wind is below 120° avg. (7.0)
Visibility8000 m
Phenomena:N/A
Clouds:N/A
Expected CloudBase > 400 ft AGL from Temp-Dew spread
CeilingNone
Temp06°C (ISA -9)
Dew Point05°C (93% RH)
AAT3.8°C
QNH1017 hPa
Density Alt-1,083 ft
Elevation16 ft
Report Wrong Elevation
Raw Report
DTTG 172200Z 12003KT 8000 NSC 06/05 Q1017 NOSIG=

Extra information for DTTG:More info

Metar Taf Metar & Taf Last 4 Metars F.Rules Stats Wind Profile Meteogram Temp Stats Airport Information Weather charts Add Link Nearby VenuesMetar ALERT Operation Metar Decoded Social comments